sensor_id;sensor_type;location;lat;lon;timestamp;P1;durP1;ratioP1;P2;durP2;ratioP2
77864;SDS011;67061;48.524;9.040;2023-08-12T00:02:36;6.88;;;4.53;;
77864;SDS011;67061;48.524;9.040;2023-08-12T00:05:03;8.35;;;4.88;;
77864;SDS011;67061;48.524;9.040;2023-08-12T00:07:31;5.95;;;4.75;;
77864;SDS011;67061;48.524;9.040;2023-08-12T00:09:58;6.80;;;4.65;;
77864;SDS011;67061;48.524;9.040;2023-08-12T00:12:27;6.55;;;4.65;;
77864;SDS011;67061;48.524;9.040;2023-08-12T00:14:54;6.15;;;4.28;;
77864;SDS011;67061;48.524;9.040;2023-08-12T00:17:21;7.65;;;4.72;;
77864;SDS011;67061;48.524;9.040;2023-08-12T00:19:48;6.78;;;4.50;;
77864;SDS011;67061;48.524;9.040;2023-08-12T00:22:15;7.88;;;5.25;;
77864;SDS011;67061;48.524;9.040;2023-08-12T00:24:42;5.45;;;4.20;;
77864;SDS011;67061;48.524;9.040;2023-08-12T00:27:09;5.15;;;4.30;;
77864;SDS011;67061;48.524;9.040;2023-08-12T00:29:37;6.85;;;4.07;;
77864;SDS011;67061;48.524;9.040;2023-08-12T00:34:31;5.80;;;4.22;;
77864;SDS011;67061;48.524;9.040;2023-08-12T00:36:58;5.65;;;4.25;;
77864;SDS011;67061;48.524;9.040;2023-08-12T00:39:25;5.20;;;3.95;;
77864;SDS011;67061;48.524;9.040;2023-08-12T00:41:52;5.97;;;4.55;;
77864;SDS011;67061;48.524;9.040;2023-08-12T00:44:19;6.10;;;4.47;;
77864;SDS011;67061;48.524;9.040;2023-08-12T00:46:48;5.82;;;4.32;;
77864;SDS011;67061;48.524;9.040;2023-08-12T00:49:15;6.55;;;4.75;;
77864;SDS011;67061;48.524;9.040;2023-08-12T00:51:42;5.93;;;4.35;;
77864;SDS011;67061;48.524;9.040;2023-08-12T00:54:13;6.05;;;4.65;;
77864;SDS011;67061;48.524;9.040;2023-08-12T00:56:41;5.13;;;4.05;;
77864;SDS011;67061;48.524;9.040;2023-08-12T00:59:08;8.35;;;4.15;;
77864;SDS011;67061;48.524;9.040;2023-08-12T01:01:35;5.50;;;3.85;;
77864;SDS011;67061;48.524;9.040;2023-08-12T01:04:05;5.80;;;4.30;;
77864;SDS011;67061;48.524;9.040;2023-08-12T01:06:32;5.93;;;4.35;;
77864;SDS011;67061;48.524;9.040;2023-08-12T01:08:59;5.70;;;4.07;;
77864;SDS011;67061;48.524;9.040;2023-08-12T01:11:28;5.70;;;4.35;;
77864;SDS011;67061;48.524;9.040;2023-08-12T01:14:07;5.97;;;4.88;;
77864;SDS011;67061;48.524;9.040;2023-08-12T01:16:40;7.32;;;4.43;;
77864;SDS011;67061;48.524;9.040;2023-08-12T01:19:14;6.82;;;4.63;;
77864;SDS011;67061;48.524;9.040;2023-08-12T01:21:49;5.82;;;4.65;;
77864;SDS011;67061;48.524;9.040;2023-08-12T01:24:20;7.55;;;5.28;;
77864;SDS011;67061;48.524;9.040;2023-08-12T01:26:48;7.65;;;4.78;;
77864;SDS011;67061;48.524;9.040;2023-08-12T01:29:15;7.68;;;4.85;;
77864;SDS011;67061;48.524;9.040;2023-08-12T01:31:43;5.75;;;4.35;;
77864;SDS011;67061;48.524;9.040;2023-08-12T01:34:16;8.80;;;4.78;;
77864;SDS011;67061;48.524;9.040;2023-08-12T01:36:51;7.82;;;4.68;;
77864;SDS011;67061;48.524;9.040;2023-08-12T01:39:22;5.50;;;4.63;;
77864;SDS011;67061;48.524;9.040;2023-08-12T01:41:51;6.28;;;4.43;;
77864;SDS011;67061;48.524;9.040;2023-08-12T01:44:20;9.40;;;4.78;;
77864;SDS011;67061;48.524;9.040;2023-08-12T01:46:47;7.18;;;4.95;;
77864;SDS011;67061;48.524;9.040;2023-08-12T01:49:15;7.13;;;4.80;;
77864;SDS011;67061;48.524;9.040;2023-08-12T01:51:42;6.45;;;4.82;;
77864;SDS011;67061;48.524;9.040;2023-08-12T01:54:09;7.40;;;5.03;;
77864;SDS011;67061;48.524;9.040;2023-08-12T01:56:38;6.78;;;4.82;;
77864;SDS011;67061;48.524;9.040;2023-08-12T01:59:04;7.60;;;5.00;;
77864;SDS011;67061;48.524;9.040;2023-08-12T02:01:31;7.78;;;4.93;;
77864;SDS011;67061;48.524;9.040;2023-08-12T02:03:58;6.50;;;4.82;;
77864;SDS011;67061;48.524;9.040;2023-08-12T02:06:25;6.47;;;4.50;;
77864;SDS011;67061;48.524;9.040;2023-08-12T02:08:52;6.82;;;4.97;;
77864;SDS011;67061;48.524;9.040;2023-08-12T02:11:19;6.30;;;4.75;;
77864;SDS011;67061;48.524;9.040;2023-08-12T02:13:47;6.95;;;4.60;;
77864;SDS011;67061;48.524;9.040;2023-08-12T02:16:14;6.57;;;4.65;;
77864;SDS011;67061;48.524;9.040;2023-08-12T02:18:41;7.53;;;4.93;;
77864;SDS011;67061;48.524;9.040;2023-08-12T02:21:07;7.20;;;4.80;;
77864;SDS011;67061;48.524;9.040;2023-08-12T02:23:34;7.38;;;4.78;;
77864;SDS011;67061;48.524;9.040;2023-08-12T02:26:01;8.60;;;5.20;;
77864;SDS011;67061;48.524;9.040;2023-08-12T02:28:29;6.70;;;4.57;;
77864;SDS011;67061;48.524;9.040;2023-08-12T02:30:57;5.82;;;4.57;;
77864;SDS011;67061;48.524;9.040;2023-08-12T02:33:24;6.97;;;4.90;;
77864;SDS011;67061;48.524;9.040;2023-08-12T02:35:52;7.68;;;5.18;;
77864;SDS011;67061;48.524;9.040;2023-08-12T02:38:20;7.13;;;5.00;;
77864;SDS011;67061;48.524;9.040;2023-08-12T02:40:48;7.63;;;5.15;;
77864;SDS011;67061;48.524;9.040;2023-08-12T02:43:15;8.27;;;4.78;;
77864;SDS011;67061;48.524;9.040;2023-08-12T02:45:42;6.97;;;5.07;;
77864;SDS011;67061;48.524;9.040;2023-08-12T02:48:10;5.82;;;4.63;;
77864;SDS011;67061;48.524;9.040;2023-08-12T02:50:38;6.57;;;5.13;;
77864;SDS011;67061;48.524;9.040;2023-08-12T02:53:05;7.20;;;4.80;;
77864;SDS011;67061;48.524;9.040;2023-08-12T02:55:33;7.90;;;5.18;;
77864;SDS011;67061;48.524;9.040;2023-08-12T02:58:00;6.95;;;5.18;;
77864;SDS011;67061;48.524;9.040;2023-08-12T03:00:28;6.75;;;5.15;;
77864;SDS011;67061;48.524;9.040;2023-08-12T03:02:55;6.75;;;5.03;;
77864;SDS011;67061;48.524;9.040;2023-08-12T03:05:23;7.70;;;5.18;;
77864;SDS011;67061;48.524;9.040;2023-08-12T03:07:50;7.85;;;5.35;;
77864;SDS011;67061;48.524;9.040;2023-08-12T03:10:17;7.60;;;6.00;;
77864;SDS011;67061;48.524;9.040;2023-08-12T03:12:45;8.57;;;5.15;;
77864;SDS011;67061;48.524;9.040;2023-08-12T03:15:12;7.90;;;6.38;;
77864;SDS011;67061;48.524;9.040;2023-08-12T03:17:39;9.48;;;5.47;;
77864;SDS011;67061;48.524;9.040;2023-08-12T03:20:07;6.57;;;5.50;;
77864;SDS011;67061;48.524;9.040;2023-08-12T03:22:36;6.97;;;5.20;;
77864;SDS011;67061;48.524;9.040;2023-08-12T03:25:04;7.53;;;5.55;;
77864;SDS011;67061;48.524;9.040;2023-08-12T03:27:32;6.95;;;5.50;;
77864;SDS011;67061;48.524;9.040;2023-08-12T03:29:59;7.55;;;4.97;;
77864;SDS011;67061;48.524;9.040;2023-08-12T03:32:26;9.55;;;6.22;;
77864;SDS011;67061;48.524;9.040;2023-08-12T03:34:53;8.48;;;6.68;;
77864;SDS011;67061;48.524;9.040;2023-08-12T03:37:19;8.15;;;6.05;;
77864;SDS011;67061;48.524;9.040;2023-08-12T03:39:48;10.00;;;6.10;;
77864;SDS011;67061;48.524;9.040;2023-08-12T03:42:15;8.68;;;5.97;;
77864;SDS011;67061;48.524;9.040;2023-08-12T03:44:42;7.78;;;6.40;;
77864;SDS011;67061;48.524;9.040;2023-08-12T03:47:09;9.90;;;8.02;;
77864;SDS011;67061;48.524;9.040;2023-08-12T03:49:36;9.63;;;7.25;;
77864;SDS011;67061;48.524;9.040;2023-08-12T03:52:03;7.05;;;6.05;;
77864;SDS011;67061;48.524;9.040;2023-08-12T03:57:00;8.02;;;5.53;;
77864;SDS011;67061;48.524;9.040;2023-08-12T03:59:27;9.05;;;6.07;;
77864;SDS011;67061;48.524;9.040;2023-08-12T04:01:54;7.85;;;5.90;;
77864;SDS011;67061;48.524;9.040;2023-08-12T04:04:20;8.45;;;5.80;;
77864;SDS011;67061;48.524;9.040;2023-08-12T04:06:47;8.82;;;6.25;;
77864;SDS011;67061;48.524;9.040;2023-08-12T04:11:44;7.15;;;5.30;;
77864;SDS011;67061;48.524;9.040;2023-08-12T04:14:12;11.52;;;5.80;;
77864;SDS011;67061;48.524;9.040;2023-08-12T04:16:40;8.93;;;5.38;;
77864;SDS011;67061;48.524;9.040;2023-08-12T04:19:07;8.57;;;5.72;;
77864;SDS011;67061;48.524;9.040;2023-08-12T04:21:34;6.43;;;5.38;;
77864;SDS011;67061;48.524;9.040;2023-08-12T04:24:00;7.45;;;6.07;;
77864;SDS011;67061;48.524;9.040;2023-08-12T04:26:27;6.50;;;5.80;;
77864;SDS011;67061;48.524;9.040;2023-08-12T04:28:54;7.38;;;5.38;;
77864;SDS011;67061;48.524;9.040;2023-08-12T04:31:22;7.50;;;5.10;;
77864;SDS011;67061;48.524;9.040;2023-08-12T04:33:49;7.72;;;5.63;;
77864;SDS011;67061;48.524;9.040;2023-08-12T04:36:18;8.30;;;5.70;;
77864;SDS011;67061;48.524;9.040;2023-08-12T04:38:45;7.25;;;5.70;;
77864;SDS011;67061;48.524;9.040;2023-08-12T04:41:12;6.65;;;5.25;;
77864;SDS011;67061;48.524;9.040;2023-08-12T04:43:39;6.90;;;5.38;;
77864;SDS011;67061;48.524;9.040;2023-08-12T04:46:06;6.60;;;5.22;;
77864;SDS011;67061;48.524;9.040;2023-08-12T04:48:34;8.30;;;5.50;;
77864;SDS011;67061;48.524;9.040;2023-08-12T04:51:01;7.82;;;5.13;;
77864;SDS011;67061;48.524;9.040;2023-08-12T04:53:30;6.72;;;5.75;;
77864;SDS011;67061;48.524;9.040;2023-08-12T04:55:57;8.00;;;5.40;;
77864;SDS011;67061;48.524;9.040;2023-08-12T04:58:24;7.10;;;5.60;;
77864;SDS011;67061;48.524;9.040;2023-08-12T05:00:51;8.48;;;5.97;;
77864;SDS011;67061;48.524;9.040;2023-08-12T05:03:18;8.68;;;6.00;;
77864;SDS011;67061;48.524;9.040;2023-08-12T05:05:49;7.22;;;5.95;;
77864;SDS011;67061;48.524;9.040;2023-08-12T05:08:16;10.38;;;5.82;;
77864;SDS011;67061;48.524;9.040;2023-08-12T05:10:44;7.57;;;6.22;;
77864;SDS011;67061;48.524;9.040;2023-08-12T05:13:13;7.72;;;5.97;;
77864;SDS011;67061;48.524;9.040;2023-08-12T05:15:40;8.30;;;5.93;;
77864;SDS011;67061;48.524;9.040;2023-08-12T05:18:07;8.85;;;6.57;;
77864;SDS011;67061;48.524;9.040;2023-08-12T05:20:34;7.20;;;5.95;;
77864;SDS011;67061;48.524;9.040;2023-08-12T05:23:02;11.25;;;5.95;;
77864;SDS011;67061;48.524;9.040;2023-08-12T05:25:29;8.85;;;5.80;;
77864;SDS011;67061;48.524;9.040;2023-08-12T05:27:56;7.60;;;5.80;;
77864;SDS011;67061;48.524;9.040;2023-08-12T05:30:23;8.73;;;6.15;;
77864;SDS011;67061;48.524;9.040;2023-08-12T05:32:50;8.70;;;6.38;;
77864;SDS011;67061;48.524;9.040;2023-08-12T05:35:17;7.88;;;6.10;;
77864;SDS011;67061;48.524;9.040;2023-08-12T05:37:43;8.57;;;6.15;;
77864;SDS011;67061;48.524;9.040;2023-08-12T05:40:12;8.55;;;6.78;;
77864;SDS011;67061;48.524;9.040;2023-08-12T05:42:39;7.50;;;6.20;;
77864;SDS011;67061;48.524;9.040;2023-08-12T05:45:07;9.30;;;7.10;;
77864;SDS011;67061;48.524;9.040;2023-08-12T05:47:34;9.73;;;6.95;;
77864;SDS011;67061;48.524;9.040;2023-08-12T05:50:01;9.57;;;7.00;;
77864;SDS011;67061;48.524;9.040;2023-08-12T05:52:28;9.88;;;6.32;;
77864;SDS011;67061;48.524;9.040;2023-08-12T05:54:55;7.60;;;5.80;;
77864;SDS011;67061;48.524;9.040;2023-08-12T05:57:23;6.90;;;5.72;;
77864;SDS011;67061;48.524;9.040;2023-08-12T05:59:50;8.65;;;6.10;;
77864;SDS011;67061;48.524;9.040;2023-08-12T06:02:17;8.10;;;6.22;;
77864;SDS011;67061;48.524;9.040;2023-08-12T06:04:44;8.88;;;5.88;;
77864;SDS011;67061;48.524;9.040;2023-08-12T06:07:11;9.07;;;6.05;;
77864;SDS011;67061;48.524;9.040;2023-08-12T06:09:38;9.57;;;5.68;;
77864;SDS011;67061;48.524;9.040;2023-08-12T06:12:05;7.32;;;6.05;;
77864;SDS011;67061;48.524;9.040;2023-08-12T06:14:37;8.45;;;6.00;;
77864;SDS011;67061;48.524;9.040;2023-08-12T06:17:05;6.68;;;5.40;;
77864;SDS011;67061;48.524;9.040;2023-08-12T06:19:35;7.70;;;5.78;;
77864;SDS011;67061;48.524;9.040;2023-08-12T06:22:01;7.78;;;5.07;;
77864;SDS011;67061;48.524;9.040;2023-08-12T06:24:29;7.05;;;5.00;;
77864;SDS011;67061;48.524;9.040;2023-08-12T06:26:56;9.45;;;5.18;;
77864;SDS011;67061;48.524;9.040;2023-08-12T06:29:23;6.50;;;5.28;;
77864;SDS011;67061;48.524;9.040;2023-08-12T06:31:51;7.90;;;5.28;;
77864;SDS011;67061;48.524;9.040;2023-08-12T06:34:18;8.82;;;5.78;;
77864;SDS011;67061;48.524;9.040;2023-08-12T06:36:45;7.55;;;5.22;;
77864;SDS011;67061;48.524;9.040;2023-08-12T06:39:12;7.57;;;5.00;;
77864;SDS011;67061;48.524;9.040;2023-08-12T06:41:39;7.72;;;4.95;;
77864;SDS011;67061;48.524;9.040;2023-08-12T06:44:06;7.47;;;5.07;;
77864;SDS011;67061;48.524;9.040;2023-08-12T06:46:32;8.98;;;5.53;;
77864;SDS011;67061;48.524;9.040;2023-08-12T06:49:01;7.10;;;5.10;;
77864;SDS011;67061;48.524;9.040;2023-08-12T06:51:27;7.80;;;4.95;;
77864;SDS011;67061;48.524;9.040;2023-08-12T06:53:54;6.82;;;5.03;;
77864;SDS011;67061;48.524;9.040;2023-08-12T06:56:21;6.20;;;5.18;;
77864;SDS011;67061;48.524;9.040;2023-08-12T06:58:48;6.82;;;5.20;;
77864;SDS011;67061;48.524;9.040;2023-08-12T07:01:15;8.48;;;5.63;;
77864;SDS011;67061;48.524;9.040;2023-08-12T07:03:42;6.93;;;4.65;;
77864;SDS011;67061;48.524;9.040;2023-08-12T07:06:10;7.25;;;5.53;;
77864;SDS011;67061;48.524;9.040;2023-08-12T07:08:37;7.95;;;5.18;;
77864;SDS011;67061;48.524;9.040;2023-08-12T07:11:04;7.32;;;5.20;;
77864;SDS011;67061;48.524;9.040;2023-08-12T07:13:31;6.90;;;5.40;;
77864;SDS011;67061;48.524;9.040;2023-08-12T07:15:58;6.57;;;5.53;;
77864;SDS011;67061;48.524;9.040;2023-08-12T07:18:25;8.38;;;5.72;;
77864;SDS011;67061;48.524;9.040;2023-08-12T07:20:52;7.60;;;4.88;;
77864;SDS011;67061;48.524;9.040;2023-08-12T07:23:20;6.70;;;5.05;;
77864;SDS011;67061;48.524;9.040;2023-08-12T07:25:47;7.60;;;5.00;;
77864;SDS011;67061;48.524;9.040;2023-08-12T07:28:14;6.75;;;4.72;;
77864;SDS011;67061;48.524;9.040;2023-08-12T07:30:41;8.88;;;5.68;;
77864;SDS011;67061;48.524;9.040;2023-08-12T07:33:08;8.30;;;4.88;;
77864;SDS011;67061;48.524;9.040;2023-08-12T07:35:35;9.38;;;5.00;;
77864;SDS011;67061;48.524;9.040;2023-08-12T07:38:03;6.00;;;4.68;;
77864;SDS011;67061;48.524;9.040;2023-08-12T07:40:32;6.00;;;5.07;;
77864;SDS011;67061;48.524;9.040;2023-08-12T07:42:59;6.70;;;5.43;;
77864;SDS011;67061;48.524;9.040;2023-08-12T07:45:26;6.00;;;4.80;;
77864;SDS011;67061;48.524;9.040;2023-08-12T07:47:53;7.65;;;5.40;;
77864;SDS011;67061;48.524;9.040;2023-08-12T07:50:19;6.20;;;5.15;;
77864;SDS011;67061;48.524;9.040;2023-08-12T07:52:46;6.00;;;5.28;;
77864;SDS011;67061;48.524;9.040;2023-08-12T07:55:13;6.22;;;4.65;;
77864;SDS011;67061;48.524;9.040;2023-08-12T07:57:42;7.60;;;5.10;;
77864;SDS011;67061;48.524;9.040;2023-08-12T08:00:09;7.55;;;4.80;;
77864;SDS011;67061;48.524;9.040;2023-08-12T08:02:37;5.80;;;4.63;;
77864;SDS011;67061;48.524;9.040;2023-08-12T08:05:04;5.60;;;4.72;;
77864;SDS011;67061;48.524;9.040;2023-08-12T08:07:32;6.07;;;4.95;;
77864;SDS011;67061;48.524;9.040;2023-08-12T08:09:59;5.90;;;4.55;;
77864;SDS011;67061;48.524;9.040;2023-08-12T08:12:26;6.72;;;4.88;;
77864;SDS011;67061;48.524;9.040;2023-08-12T08:14:54;5.45;;;4.68;;
77864;SDS011;67061;48.524;9.040;2023-08-12T08:19:47;5.28;;;4.47;;
77864;SDS011;67061;48.524;9.040;2023-08-12T08:22:14;6.70;;;4.53;;
77864;SDS011;67061;48.524;9.040;2023-08-12T08:24:41;5.85;;;4.68;;
77864;SDS011;67061;48.524;9.040;2023-08-12T08:27:08;6.07;;;4.50;;
77864;SDS011;67061;48.524;9.040;2023-08-12T08:29:35;5.38;;;4.57;;
77864;SDS011;67061;48.524;9.040;2023-08-12T08:32:03;5.82;;;4.90;;
77864;SDS011;67061;48.524;9.040;2023-08-12T08:34:30;5.43;;;4.47;;
77864;SDS011;67061;48.524;9.040;2023-08-12T08:36:57;5.78;;;4.28;;
77864;SDS011;67061;48.524;9.040;2023-08-12T08:39:24;6.15;;;4.60;;
77864;SDS011;67061;48.524;9.040;2023-08-12T08:41:51;7.68;;;5.10;;
77864;SDS011;67061;48.524;9.040;2023-08-12T08:44:21;5.35;;;4.53;;
77864;SDS011;67061;48.524;9.040;2023-08-12T08:46:49;5.72;;;4.72;;
77864;SDS011;67061;48.524;9.040;2023-08-12T08:49:20;5.28;;;4.35;;
77864;SDS011;67061;48.524;9.040;2023-08-12T08:51:47;7.00;;;4.68;;
77864;SDS011;67061;48.524;9.040;2023-08-12T08:54:15;4.68;;;3.97;;
77864;SDS011;67061;48.524;9.040;2023-08-12T08:56:42;5.10;;;4.00;;
77864;SDS011;67061;48.524;9.040;2023-08-12T08:59:09;5.25;;;4.22;;
77864;SDS011;67061;48.524;9.040;2023-08-12T09:01:36;5.43;;;3.70;;
77864;SDS011;67061;48.524;9.040;2023-08-12T09:04:05;5.97;;;4.63;;
77864;SDS011;67061;48.524;9.040;2023-08-12T09:06:35;6.35;;;4.38;;
77864;SDS011;67061;48.524;9.040;2023-08-12T09:09:05;4.40;;;3.80;;
77864;SDS011;67061;48.524;9.040;2023-08-12T09:11:35;5.30;;;4.13;;
77864;SDS011;67061;48.524;9.040;2023-08-12T09:14:05;4.60;;;3.70;;
77864;SDS011;67061;48.524;9.040;2023-08-12T09:16:33;4.70;;;4.10;;
77864;SDS011;67061;48.524;9.040;2023-08-12T09:19:00;5.07;;;3.75;;
77864;SDS011;67061;48.524;9.040;2023-08-12T09:21:27;6.28;;;3.97;;
77864;SDS011;67061;48.524;9.040;2023-08-12T09:23:55;6.15;;;3.80;;
77864;SDS011;67061;48.524;9.040;2023-08-12T09:26:23;4.95;;;4.05;;
77864;SDS011;67061;48.524;9.040;2023-08-12T09:28:49;5.75;;;3.65;;
77864;SDS011;67061;48.524;9.040;2023-08-12T09:31:23;5.47;;;3.70;;
77864;SDS011;67061;48.524;9.040;2023-08-12T09:33:51;4.10;;;3.40;;
77864;SDS011;67061;48.524;9.040;2023-08-12T09:36:20;6.10;;;3.50;;
77864;SDS011;67061;48.524;9.040;2023-08-12T09:38:48;4.28;;;3.55;;
77864;SDS011;67061;48.524;9.040;2023-08-12T09:41:16;5.85;;;3.75;;
77864;SDS011;67061;48.524;9.040;2023-08-12T09:43:45;7.13;;;4.32;;
77864;SDS011;67061;48.524;9.040;2023-08-12T09:46:12;4.00;;;3.55;;
77864;SDS011;67061;48.524;9.040;2023-08-12T09:51:06;5.38;;;3.53;;
77864;SDS011;67061;48.524;9.040;2023-08-12T09:53:33;5.20;;;4.18;;
77864;SDS011;67061;48.524;9.040;2023-08-12T09:56:02;5.15;;;3.95;;
77864;SDS011;67061;48.524;9.040;2023-08-12T09:58:34;6.60;;;4.32;;
77864;SDS011;67061;48.524;9.040;2023-08-12T10:01:02;6.00;;;3.90;;
77864;SDS011;67061;48.524;9.040;2023-08-12T10:03:29;5.07;;;4.10;;
77864;SDS011;67061;48.524;9.040;2023-08-12T10:06:00;4.68;;;4.10;;
77864;SDS011;67061;48.524;9.040;2023-08-12T10:08:28;5.95;;;4.22;;
77864;SDS011;67061;48.524;9.040;2023-08-12T10:10:56;4.95;;;3.80;;
77864;SDS011;67061;48.524;9.040;2023-08-12T10:13:23;6.68;;;3.95;;
77864;SDS011;67061;48.524;9.040;2023-08-12T10:15:51;4.72;;;3.60;;
77864;SDS011;67061;48.524;9.040;2023-08-12T10:18:19;5.50;;;3.58;;
77864;SDS011;67061;48.524;9.040;2023-08-12T10:20:48;5.68;;;3.80;;
77864;SDS011;67061;48.524;9.040;2023-08-12T10:23:16;4.70;;;3.58;;
77864;SDS011;67061;48.524;9.040;2023-08-12T10:25:44;3.60;;;3.15;;
77864;SDS011;67061;48.524;9.040;2023-08-12T10:28:11;4.47;;;3.28;;
77864;SDS011;67061;48.524;9.040;2023-08-12T10:30:39;5.30;;;3.00;;
77864;SDS011;67061;48.524;9.040;2023-08-12T10:33:08;4.95;;;3.45;;
77864;SDS011;67061;48.524;9.040;2023-08-12T10:35:42;3.97;;;3.03;;
77864;SDS011;67061;48.524;9.040;2023-08-12T10:38:11;4.63;;;3.13;;
77864;SDS011;67061;48.524;9.040;2023-08-12T10:40:40;4.75;;;3.28;;
77864;SDS011;67061;48.524;9.040;2023-08-12T10:43:07;5.68;;;3.10;;
77864;SDS011;67061;48.524;9.040;2023-08-12T10:45:41;5.13;;;2.92;;
77864;SDS011;67061;48.524;9.040;2023-08-12T10:48:16;4.15;;;2.60;;
77864;SDS011;67061;48.524;9.040;2023-08-12T10:50:45;4.63;;;2.80;;
77864;SDS011;67061;48.524;9.040;2023-08-12T10:53:25;3.50;;;2.17;;
77864;SDS011;67061;48.524;9.040;2023-08-12T10:58:24;3.63;;;2.35;;
77864;SDS011;67061;48.524;9.040;2023-08-12T11:00:53;3.70;;;2.58;;
77864;SDS011;67061;48.524;9.040;2023-08-12T11:03:22;3.75;;;2.08;;
77864;SDS011;67061;48.524;9.040;2023-08-12T11:05:49;3.13;;;1.92;;
77864;SDS011;67061;48.524;9.040;2023-08-12T11:08:23;3.38;;;2.05;;
77864;SDS011;67061;48.524;9.040;2023-08-12T11:10:52;5.55;;;2.20;;
77864;SDS011;67061;48.524;9.040;2023-08-12T11:13:22;3.63;;;2.10;;
77864;SDS011;67061;48.524;9.040;2023-08-12T11:15:52;2.95;;;2.22;;
77864;SDS011;67061;48.524;9.040;2023-08-12T11:18:34;4.15;;;1.92;;
77864;SDS011;67061;48.524;9.040;2023-08-12T11:21:01;4.53;;;2.42;;
77864;SDS011;67061;48.524;9.040;2023-08-12T11:23:28;3.83;;;2.28;;
77864;SDS011;67061;48.524;9.040;2023-08-12T11:25:56;5.00;;;2.20;;
77864;SDS011;67061;48.524;9.040;2023-08-12T11:28:24;3.65;;;1.92;;
77864;SDS011;67061;48.524;9.040;2023-08-12T11:30:51;3.28;;;2.17;;
77864;SDS011;67061;48.524;9.040;2023-08-12T11:33:18;4.35;;;2.45;;
77864;SDS011;67061;48.524;9.040;2023-08-12T11:35:48;3.90;;;2.20;;
77864;SDS011;67061;48.524;9.040;2023-08-12T11:38:15;5.50;;;2.67;;
77864;SDS011;67061;48.524;9.040;2023-08-12T11:40:42;4.20;;;2.15;;
77864;SDS011;67061;48.524;9.040;2023-08-12T11:43:09;3.53;;;2.05;;
77864;SDS011;67061;48.524;9.040;2023-08-12T11:45:36;4.68;;;2.60;;
77864;SDS011;67061;48.524;9.040;2023-08-12T11:48:07;6.05;;;1.90;;
77864;SDS011;67061;48.524;9.040;2023-08-12T11:50:35;4.28;;;2.00;;
77864;SDS011;67061;48.524;9.040;2023-08-12T11:53:03;3.88;;;1.60;;
77864;SDS011;67061;48.524;9.040;2023-08-12T11:55:31;4.65;;;1.80;;
77864;SDS011;67061;48.524;9.040;2023-08-12T11:57:58;4.05;;;1.98;;
77864;SDS011;67061;48.524;9.040;2023-08-12T12:00:25;3.63;;;1.60;;
77864;SDS011;67061;48.524;9.040;2023-08-12T12:02:53;4.78;;;1.70;;
77864;SDS011;67061;48.524;9.040;2023-08-12T12:05:21;3.90;;;1.65;;
77864;SDS011;67061;48.524;9.040;2023-08-12T12:07:50;3.15;;;1.85;;
77864;SDS011;67061;48.524;9.040;2023-08-12T12:10:25;3.08;;;1.70;;
77864;SDS011;67061;48.524;9.040;2023-08-12T12:12:54;3.75;;;2.15;;
77864;SDS011;67061;48.524;9.040;2023-08-12T12:15:21;2.75;;;1.67;;
77864;SDS011;67061;48.524;9.040;2023-08-12T12:17:49;4.20;;;2.10;;
77864;SDS011;67061;48.524;9.040;2023-08-12T12:22:44;3.78;;;1.80;;
77864;SDS011;67061;48.524;9.040;2023-08-12T12:25:12;4.05;;;1.85;;
77864;SDS011;67061;48.524;9.040;2023-08-12T12:27:41;3.58;;;2.03;;
77864;SDS011;67061;48.524;9.040;2023-08-12T12:30:10;4.05;;;1.88;;
77864;SDS011;67061;48.524;9.040;2023-08-12T12:32:38;2.80;;;1.98;;
77864;SDS011;67061;48.524;9.040;2023-08-12T12:35:06;4.05;;;1.92;;
77864;SDS011;67061;48.524;9.040;2023-08-12T12:37:33;4.32;;;2.03;;
77864;SDS011;67061;48.524;9.040;2023-08-12T12:40:01;3.30;;;2.05;;
77864;SDS011;67061;48.524;9.040;2023-08-12T12:42:28;7.30;;;2.20;;
77864;SDS011;67061;48.524;9.040;2023-08-12T12:44:56;6.65;;;2.40;;
77864;SDS011;67061;48.524;9.040;2023-08-12T12:47:23;5.10;;;1.75;;
77864;SDS011;67061;48.524;9.040;2023-08-12T12:49:50;3.35;;;1.63;;
77864;SDS011;67061;48.524;9.040;2023-08-12T12:52:17;4.18;;;2.20;;
77864;SDS011;67061;48.524;9.040;2023-08-12T12:54:44;5.05;;;2.28;;
77864;SDS011;67061;48.524;9.040;2023-08-12T12:57:11;4.43;;;2.03;;
77864;SDS011;67061;48.524;9.040;2023-08-12T12:59:38;3.60;;;1.52;;
77864;SDS011;67061;48.524;9.040;2023-08-12T13:02:06;3.17;;;1.50;;
77864;SDS011;67061;48.524;9.040;2023-08-12T13:04:33;3.80;;;2.08;;
77864;SDS011;67061;48.524;9.040;2023-08-12T13:07:00;3.75;;;2.05;;
77864;SDS011;67061;48.524;9.040;2023-08-12T13:09:27;3.50;;;1.63;;
77864;SDS011;67061;48.524;9.040;2023-08-12T13:11:54;4.35;;;1.95;;
77864;SDS011;67061;48.524;9.040;2023-08-12T13:14:22;2.45;;;1.40;;
77864;SDS011;67061;48.524;9.040;2023-08-12T13:16:49;3.05;;;1.38;;
77864;SDS011;67061;48.524;9.040;2023-08-12T13:19:17;4.18;;;1.65;;
77864;SDS011;67061;48.524;9.040;2023-08-12T13:21:44;3.33;;;1.67;;
77864;SDS011;67061;48.524;9.040;2023-08-12T13:24:11;4.63;;;1.52;;
77864;SDS011;67061;48.524;9.040;2023-08-12T13:26:38;3.78;;;1.63;;
77864;SDS011;67061;48.524;9.040;2023-08-12T13:29:05;2.92;;;1.55;;
77864;SDS011;67061;48.524;9.040;2023-08-12T13:31:32;3.33;;;1.52;;
77864;SDS011;67061;48.524;9.040;2023-08-12T13:33:59;2.78;;;1.00;;
77864;SDS011;67061;48.524;9.040;2023-08-12T13:36:27;2.85;;;1.35;;
77864;SDS011;67061;48.524;9.040;2023-08-12T13:38:54;2.35;;;1.27;;
77864;SDS011;67061;48.524;9.040;2023-08-12T13:41:21;3.80;;;1.30;;
77864;SDS011;67061;48.524;9.040;2023-08-12T13:43:48;3.08;;;1.30;;
77864;SDS011;67061;48.524;9.040;2023-08-12T13:46:15;3.63;;;1.65;;
77864;SDS011;67061;48.524;9.040;2023-08-12T13:48:42;2.67;;;1.33;;
77864;SDS011;67061;48.524;9.040;2023-08-12T13:51:08;4.22;;;1.38;;
77864;SDS011;67061;48.524;9.040;2023-08-12T13:53:37;2.70;;;1.30;;
77864;SDS011;67061;48.524;9.040;2023-08-12T13:56:04;4.15;;;1.40;;
77864;SDS011;67061;48.524;9.040;2023-08-12T13:58:31;5.07;;;1.80;;
77864;SDS011;67061;48.524;9.040;2023-08-12T14:00:58;4.38;;;2.45;;
77864;SDS011;67061;48.524;9.040;2023-08-12T14:03:24;4.55;;;1.58;;
77864;SDS011;67061;48.524;9.040;2023-08-12T14:05:51;3.40;;;1.75;;
77864;SDS011;67061;48.524;9.040;2023-08-12T14:08:18;4.43;;;1.85;;
77864;SDS011;67061;48.524;9.040;2023-08-12T14:10:49;3.30;;;1.60;;
77864;SDS011;67061;48.524;9.040;2023-08-12T14:13:16;3.30;;;1.42;;
77864;SDS011;67061;48.524;9.040;2023-08-12T14:15:43;2.88;;;1.40;;
77864;SDS011;67061;48.524;9.040;2023-08-12T14:18:10;4.00;;;1.83;;
77864;SDS011;67061;48.524;9.040;2023-08-12T14:20:37;4.55;;;2.03;;
77864;SDS011;67061;48.524;9.040;2023-08-12T14:23:04;3.45;;;1.88;;
77864;SDS011;67061;48.524;9.040;2023-08-12T14:25:31;2.92;;;1.52;;
77864;SDS011;67061;48.524;9.040;2023-08-12T14:27:59;3.47;;;1.88;;
77864;SDS011;67061;48.524;9.040;2023-08-12T14:32:53;3.90;;;1.75;;
77864;SDS011;67061;48.524;9.040;2023-08-12T14:35:20;4.13;;;1.83;;
77864;SDS011;67061;48.524;9.040;2023-08-12T14:37:47;3.30;;;1.98;;
77864;SDS011;67061;48.524;9.040;2023-08-12T14:40:13;3.85;;;2.53;;
77864;SDS011;67061;48.524;9.040;2023-08-12T14:42:41;3.53;;;2.33;;
77864;SDS011;67061;48.524;9.040;2023-08-12T14:45:09;3.90;;;2.03;;
77864;SDS011;67061;48.524;9.040;2023-08-12T14:47:36;3.30;;;1.92;;
77864;SDS011;67061;48.524;9.040;2023-08-12T14:50:04;3.40;;;1.73;;
77864;SDS011;67061;48.524;9.040;2023-08-12T14:52:34;4.13;;;2.10;;
77864;SDS011;67061;48.524;9.040;2023-08-12T14:55:01;3.40;;;2.50;;
77864;SDS011;67061;48.524;9.040;2023-08-12T14:57:28;3.20;;;2.00;;
77864;SDS011;67061;48.524;9.040;2023-08-12T14:59:55;2.60;;;1.60;;
77864;SDS011;67061;48.524;9.040;2023-08-12T15:02:23;6.05;;;2.05;;
77864;SDS011;67061;48.524;9.040;2023-08-12T15:04:50;3.53;;;2.30;;
77864;SDS011;67061;48.524;9.040;2023-08-12T15:07:18;5.38;;;2.75;;
77864;SDS011;67061;48.524;9.040;2023-08-12T15:09:47;4.20;;;2.40;;
77864;SDS011;67061;48.524;9.040;2023-08-12T15:12:13;3.20;;;1.98;;